createdAt,value
2018-06-09T00:00:15.721Z,25.00
2018-06-09T00:02:44.427Z,25.00
2018-06-09T00:05:13.087Z,24.90
2018-06-09T00:07:41.833Z,24.80
2018-06-09T00:10:10.542Z,24.80
2018-06-09T00:12:39.362Z,24.80
2018-06-09T00:15:07.974Z,24.80
2018-06-09T00:17:36.787Z,24.70
2018-06-09T00:20:05.485Z,24.70
2018-06-09T00:22:34.279Z,24.80
2018-06-09T00:25:03.011Z,24.80
2018-06-09T00:27:31.829Z,24.90
2018-06-09T00:30:00.519Z,24.80
2018-06-09T00:32:29.206Z,24.80
2018-06-09T00:34:57.995Z,24.80
2018-06-09T00:37:26.701Z,24.70
2018-06-09T00:39:55.407Z,24.30
2018-06-09T00:44:52.358Z,24.20
2018-06-09T00:47:21.214Z,24.30
2018-06-09T00:49:49.798Z,24.40
2018-06-09T00:52:18.450Z,24.40
2018-06-09T00:54:47.138Z,24.50
2018-06-09T00:57:15.875Z,24.50
2018-06-09T00:59:44.603Z,24.40
2018-06-09T01:02:13.252Z,24.30
2018-06-09T01:04:41.960Z,24.20
2018-06-09T01:07:10.584Z,23.80
2018-06-09T01:09:39.387Z,23.60
2018-06-09T01:12:08.107Z,23.60
2018-06-09T01:14:36.772Z,23.50
2018-06-09T01:17:05.491Z,23.50
2018-06-09T01:19:34.208Z,23.40
2018-06-09T01:26:59.721Z,23.20
2018-06-09T01:29:28.415Z,23.10
2018-06-09T01:31:57.099Z,23.00
2018-06-09T01:34:25.927Z,23.10
2018-06-09T01:36:54.812Z,23.00
2018-06-09T01:39:23.494Z,22.90
2018-06-09T01:41:52.201Z,22.70
2018-06-09T01:44:20.813Z,22.70
2018-06-09T01:46:49.805Z,22.50
2018-06-09T01:49:18.479Z,22.20
2018-06-09T01:54:15.764Z,22.60
2018-06-09T01:56:44.416Z,22.70
2018-06-09T01:59:13.093Z,22.70
2018-06-09T02:01:41.776Z,22.80
2018-06-09T02:04:10.702Z,22.80
2018-06-09T02:06:39.361Z,22.70
2018-06-09T02:09:09.354Z,22.70
2018-06-09T02:11:38.260Z,22.60
2018-06-09T02:14:07.107Z,22.50
2018-06-09T02:16:35.798Z,22.50
2018-06-09T02:19:04.518Z,22.50
2018-06-09T02:21:33.361Z,22.40
2018-06-09T02:24:01.922Z,22.40
2018-06-09T02:26:30.915Z,22.40
2018-06-09T02:28:59.575Z,22.40
2018-06-09T02:31:28.405Z,22.30
2018-06-09T02:36:25.696Z,22.40
2018-06-09T02:38:54.516Z,21.90
2018-06-09T02:41:23.356Z,21.80
2018-06-09T02:43:52.162Z,21.90
2018-06-09T02:46:20.911Z,21.80
2018-06-09T02:48:49.512Z,21.70
2018-06-09T02:51:18.290Z,21.70
2018-06-09T02:53:46.981Z,21.70
2018-06-09T02:56:15.820Z,21.70
2018-06-09T03:01:12.962Z,21.60
2018-06-09T03:03:41.685Z,21.60
2018-06-09T03:06:10.398Z,21.60
2018-06-09T03:08:39.099Z,21.60
2018-06-09T03:11:07.850Z,21.10
2018-06-09T03:13:36.507Z,21.50
2018-06-09T03:16:05.263Z,21.50
2018-06-09T03:18:34.027Z,21.50
2018-06-09T03:21:02.784Z,21.40
2018-06-09T03:25:59.941Z,19.80
2018-06-09T03:28:28.887Z,22.90
2018-06-09T03:30:57.567Z,20.70
2018-06-09T03:33:26.321Z,21.10
2018-06-09T03:35:55.039Z,21.10
2018-06-09T03:38:23.688Z,21.20
2018-06-09T03:40:52.416Z,21.10
2018-06-09T03:43:21.137Z,21.20
2018-06-09T03:45:49.775Z,21.20
2018-06-09T03:50:46.778Z,21.10
2018-06-09T03:53:15.538Z,21.00
2018-06-09T03:55:44.214Z,21.00
2018-06-09T03:58:12.880Z,21.10
2018-06-09T04:00:41.601Z,21.10
2018-06-09T04:03:10.381Z,21.10
2018-06-09T04:05:39.087Z,20.90
2018-06-09T04:08:07.847Z,20.90
2018-06-09T04:13:05.200Z,20.80
2018-06-09T04:15:33.935Z,20.70
2018-06-09T04:18:02.686Z,20.70
2018-06-09T04:20:31.408Z,20.20
2018-06-09T04:23:00.164Z,20.70
2018-06-09T04:25:28.884Z,22.80
2018-06-09T04:27:57.728Z,21.00
2018-06-09T04:30:26.475Z,22.60
2018-06-09T04:32:55.295Z,21.10
2018-06-09T04:35:24.108Z,21.20
2018-06-09T04:37:52.780Z,21.20
2018-06-09T04:40:21.518Z,21.20
2018-06-09T04:42:50.285Z,21.30
2018-06-09T04:45:19.038Z,21.20
2018-06-09T04:47:47.849Z,21.20
2018-06-09T04:50:16.682Z,21.40
2018-06-09T04:52:45.506Z,21.60
2018-06-09T04:55:14.353Z,21.70
2018-06-09T05:00:12.226Z,21.60
2018-06-09T05:02:41.043Z,21.50
2018-06-09T05:05:09.835Z,21.50
2018-06-09T05:07:38.706Z,21.60
2018-06-09T05:10:07.682Z,21.40
2018-06-09T05:15:04.786Z,21.30
2018-06-09T05:17:33.701Z,21.40
2018-06-09T05:20:02.447Z,21.30
2018-06-09T05:22:31.143Z,21.30
2018-06-09T05:24:59.764Z,21.30
2018-06-09T05:27:28.536Z,21.30
2018-06-09T05:32:25.691Z,21.40
2018-06-09T05:34:54.355Z,21.50
2018-06-09T05:37:22.960Z,21.60
2018-06-09T05:39:51.599Z,21.70
2018-06-09T05:42:20.462Z,21.70
2018-06-09T05:44:49.178Z,21.70
2018-06-09T05:47:17.814Z,21.70
2018-06-09T05:54:43.387Z,21.80
2018-06-09T05:57:12.059Z,21.90
2018-06-09T05:59:40.857Z,21.90
2018-06-09T06:04:37.863Z,22.00
2018-06-09T06:07:06.593Z,22.10
2018-06-09T06:09:35.310Z,22.10
2018-06-09T06:12:04.170Z,22.00
2018-06-09T06:14:32.830Z,21.80
2018-06-09T06:17:01.434Z,21.80
2018-06-09T06:19:30.214Z,21.70
2018-06-09T06:21:59.085Z,21.70
2018-06-09T06:24:27.942Z,21.70
2018-06-09T06:26:56.810Z,21.70
2018-06-09T06:29:25.498Z,21.90
2018-06-09T06:31:54.232Z,22.00
2018-06-09T06:34:22.886Z,22.00
2018-06-09T06:39:20.079Z,22.10
2018-06-09T06:41:48.863Z,22.10
2018-06-09T06:44:17.714Z,22.00
2018-06-09T06:46:46.861Z,22.00
2018-06-09T06:49:15.674Z,22.10
2018-06-09T06:51:44.298Z,22.10
2018-06-09T06:54:12.991Z,22.00
2018-06-09T06:56:41.666Z,22.00
2018-06-09T06:59:10.328Z,21.40
2018-06-09T07:01:38.977Z,22.00
2018-06-09T07:04:07.862Z,22.10
2018-06-09T07:09:07.526Z,22.40
2018-06-09T07:11:36.844Z,22.60
2018-06-09T07:14:05.996Z,22.70
2018-06-09T07:16:34.632Z,22.80
2018-06-09T07:19:03.241Z,22.80
2018-06-09T07:21:32.067Z,22.80
2018-06-09T07:24:00.894Z,22.90
2018-06-09T07:26:29.550Z,22.90
2018-06-09T07:28:58.291Z,23.20
2018-06-09T07:31:27.035Z,23.40
2018-06-09T07:33:55.872Z,23.40
2018-06-09T07:36:24.801Z,23.50
2018-06-09T07:38:53.679Z,22.50
2018-06-09T07:41:22.648Z,23.30
2018-06-09T07:43:51.411Z,23.30
2018-06-09T07:46:20.248Z,23.40
2018-06-09T07:48:48.826Z,23.50
2018-06-09T07:51:17.626Z,23.50
2018-06-09T07:53:56.175Z,23.70
2018-06-09T07:56:25.020Z,23.60
2018-06-09T07:58:53.775Z,23.80
2018-06-09T08:01:22.643Z,23.80
2018-06-09T08:03:51.385Z,23.80
2018-06-09T08:06:20.165Z,23.80
2018-06-09T08:08:48.841Z,23.90
2018-06-09T08:11:17.633Z,24.00
2018-06-09T08:13:46.465Z,24.20
2018-06-09T08:18:43.799Z,24.10
2018-06-09T08:21:12.641Z,24.20
2018-06-09T08:23:41.478Z,24.20
2018-06-09T08:26:10.241Z,24.20
2018-06-09T08:28:39.019Z,24.40
2018-06-09T08:31:07.742Z,24.60
2018-06-09T08:33:37.608Z,24.60
2018-06-09T08:36:07.173Z,24.60
2018-06-09T08:38:36.091Z,24.70
2018-06-09T08:41:04.881Z,24.60
2018-06-09T08:43:33.594Z,24.50
2018-06-09T08:48:30.960Z,24.50
2018-06-09T08:50:59.875Z,24.70
2018-06-09T08:55:57.027Z,24.70
2018-06-09T09:00:54.329Z,24.80
2018-06-09T09:03:23.207Z,24.80
2018-06-09T09:05:52.095Z,24.80
2018-06-09T09:08:21.068Z,24.90
2018-06-09T09:10:49.959Z,25.00
2018-06-09T09:13:18.658Z,24.70
2018-06-09T09:15:47.411Z,25.10
2018-06-09T09:18:16.458Z,25.30
2018-06-09T09:20:45.535Z,25.60
2018-06-09T09:23:14.330Z,25.60
2018-06-09T09:25:43.190Z,25.60
2018-06-09T09:28:12.089Z,25.60
2018-06-09T09:30:40.896Z,25.80
2018-06-09T09:33:10.710Z,26.00
2018-06-09T09:35:39.604Z,26.00
2018-06-09T09:38:08.542Z,26.00
2018-06-09T09:40:37.258Z,26.00
2018-06-09T09:43:06.173Z,26.10
2018-06-09T09:45:35.011Z,26.00
2018-06-09T09:48:03.883Z,26.00
2018-06-09T09:50:32.626Z,26.10
2018-06-09T09:53:01.406Z,26.10
2018-06-09T09:55:30.371Z,26.10
2018-06-09T10:00:34.465Z,24.90
2018-06-09T10:03:03.328Z,25.80
2018-06-09T10:05:32.028Z,25.70
2018-06-09T10:08:00.784Z,25.80
2018-06-09T10:10:29.672Z,25.80
2018-06-09T10:12:58.459Z,25.90
2018-06-09T10:15:27.201Z,25.80
2018-06-09T10:17:55.828Z,25.90
2018-06-09T10:22:53.056Z,26.30
2018-06-09T10:25:21.730Z,27.20
2018-06-09T10:27:50.422Z,27.20
2018-06-09T10:30:19.452Z,27.10
2018-06-09T10:32:48.324Z,27.10
2018-06-09T10:35:17.406Z,27.20
2018-06-09T10:37:46.261Z,27.10
2018-06-09T10:40:15.154Z,26.40
2018-06-09T10:42:43.973Z,26.90
2018-06-09T10:45:12.708Z,26.90
2018-06-09T10:47:41.766Z,27.40
2018-06-09T10:50:10.611Z,27.00
2018-06-09T10:52:39.515Z,27.90
2018-06-09T10:55:08.313Z,28.00
2018-06-09T10:57:37.145Z,28.00
2018-06-09T11:00:06.191Z,28.10
2018-06-09T11:02:35.267Z,28.60
2018-06-09T11:05:04.080Z,29.70
2018-06-09T11:07:32.800Z,30.70
2018-06-09T11:10:01.788Z,30.30
2018-06-09T11:12:30.811Z,30.30
2018-06-09T11:14:59.602Z,30.90
2018-06-09T11:17:28.350Z,31.10
2018-06-09T11:19:57.150Z,31.20
2018-06-09T11:22:25.774Z,31.10
2018-06-09T11:24:54.499Z,30.00
2018-06-09T11:27:23.240Z,31.10
2018-06-09T11:29:51.898Z,31.10
2018-06-09T11:32:20.753Z,30.10
2018-06-09T11:34:49.435Z,29.80
2018-06-09T11:39:46.516Z,31.00
2018-06-09T11:42:15.551Z,31.00
2018-06-09T11:44:44.319Z,31.70
2018-06-09T11:47:13.151Z,31.80
2018-06-09T11:49:41.847Z,31.50
2018-06-09T11:52:10.589Z,31.30
2018-06-09T11:54:39.335Z,31.20
2018-06-09T11:57:08.075Z,30.30
2018-06-09T11:59:37.242Z,30.00
2018-06-09T12:02:06.033Z,29.80
2018-06-09T12:04:34.847Z,30.70
2018-06-09T12:07:03.698Z,31.20
2018-06-09T12:09:32.259Z,31.90
2018-06-09T12:12:01.010Z,32.20
2018-06-09T12:14:30.053Z,32.30
2018-06-09T12:16:58.888Z,32.70
2018-06-09T12:21:56.104Z,32.30
2018-06-09T12:24:24.974Z,31.60
2018-06-09T12:26:53.819Z,30.50
2018-06-09T12:29:22.572Z,29.80
2018-06-09T12:31:51.349Z,29.60
2018-06-09T12:34:20.078Z,30.70
2018-06-09T12:36:48.795Z,32.40
2018-06-09T12:41:45.951Z,33.30
2018-06-09T12:46:43.047Z,34.80
2018-06-09T12:49:11.840Z,34.00
2018-06-09T12:51:40.750Z,34.30
2018-06-09T12:54:09.524Z,34.90
2018-06-09T12:56:38.394Z,34.90
2018-06-09T12:59:07.169Z,35.00
2018-06-09T13:01:36.086Z,35.50
2018-06-09T13:06:33.505Z,35.00
2018-06-09T13:09:02.426Z,35.00
2018-06-09T13:11:31.180Z,34.00
2018-06-09T13:13:59.975Z,34.10
2018-06-09T13:16:28.837Z,34.90
2018-06-09T13:18:57.626Z,35.10
2018-06-09T13:21:26.505Z,35.40
2018-06-09T13:23:55.365Z,35.80
2018-06-09T13:26:24.049Z,35.70
2018-06-09T13:28:52.724Z,35.90
2018-06-09T13:31:21.563Z,35.90
2018-06-09T13:33:50.396Z,36.00
2018-06-09T13:36:19.421Z,36.30
2018-06-09T13:38:48.126Z,37.00
2018-06-09T13:41:17.248Z,37.10
2018-06-09T13:43:45.998Z,34.70
2018-06-09T13:46:14.662Z,35.60
2018-06-09T13:48:43.488Z,36.80
2018-06-09T13:51:12.397Z,37.50
2018-06-09T13:53:41.120Z,37.20
2018-06-09T13:56:09.709Z,35.80
2018-06-09T13:58:38.554Z,35.10
2018-06-09T14:01:07.280Z,35.60
2018-06-09T14:03:36.110Z,34.90
2018-06-09T14:06:04.946Z,36.90
2018-06-09T14:08:33.806Z,34.70
2018-06-09T14:11:02.572Z,33.00
2018-06-09T14:13:31.242Z,30.90
2018-06-09T14:15:59.963Z,31.20
2018-06-09T14:18:28.791Z,30.40
2018-06-09T14:20:57.631Z,30.60
2018-06-09T14:23:26.351Z,30.90
2018-06-09T14:28:23.535Z,29.70
2018-06-09T14:33:20.958Z,29.90
2018-06-09T14:35:49.740Z,30.40
2018-06-09T14:38:18.525Z,30.30
2018-06-09T14:40:47.237Z,30.30
2018-06-09T14:43:16.146Z,30.20
2018-06-09T14:45:44.811Z,30.20
2018-06-09T14:48:13.677Z,30.00
2018-06-09T14:50:42.548Z,29.90
2018-06-09T14:53:11.228Z,29.20
2018-06-09T14:55:40.391Z,29.50
2018-06-09T14:58:09.147Z,29.50
2018-06-09T15:00:38.047Z,29.40
2018-06-09T15:03:06.788Z,29.40
2018-06-09T15:05:35.627Z,29.70
2018-06-09T15:08:08.696Z,30.30
2018-06-09T15:13:09.827Z,29.80
2018-06-09T15:15:38.662Z,29.50
2018-06-09T15:20:35.906Z,29.20
2018-06-09T15:23:04.779Z,29.20
2018-06-09T15:25:33.442Z,29.20
2018-06-09T15:28:02.104Z,29.00
2018-06-09T15:30:30.932Z,28.30
2018-06-09T15:32:59.733Z,28.00
2018-06-09T15:35:28.450Z,28.00
2018-06-09T15:40:25.463Z,27.50
2018-06-09T15:42:54.189Z,27.30
2018-06-09T15:45:22.803Z,27.20
2018-06-09T15:50:19.930Z,27.10
2018-06-09T15:52:48.564Z,27.20
2018-06-09T15:55:17.332Z,27.40
2018-06-09T16:00:18.848Z,27.50
2018-06-09T16:02:47.584Z,27.60
2018-06-09T16:05:16.443Z,28.20
2018-06-09T16:07:45.543Z,28.30
2018-06-09T16:10:14.676Z,28.60
2018-06-09T16:12:43.430Z,28.60
2018-06-09T16:15:12.232Z,29.00
2018-06-09T16:17:40.973Z,29.20
2018-06-09T16:20:09.824Z,28.30
2018-06-09T16:22:38.553Z,28.80
2018-06-09T16:25:07.380Z,28.70
2018-06-09T16:27:36.199Z,26.80
2018-06-09T16:30:05.044Z,26.70
2018-06-09T16:32:34.248Z,27.00
2018-06-09T16:35:03.502Z,26.80
2018-06-09T16:37:32.214Z,26.90
2018-06-09T16:40:00.911Z,27.60
2018-06-09T16:42:29.753Z,27.60
2018-06-09T16:44:58.435Z,27.60
2018-06-09T16:47:27.243Z,27.60
2018-06-09T16:49:56.010Z,27.60
2018-06-09T16:52:24.755Z,26.90
2018-06-09T16:54:53.391Z,27.00
2018-06-09T16:57:22.126Z,27.10
2018-06-09T16:59:50.759Z,27.40
2018-06-09T17:02:19.484Z,27.60
2018-06-09T17:04:48.123Z,27.60
2018-06-09T17:07:16.832Z,27.50
2018-06-09T17:09:45.631Z,27.60
2018-06-09T17:12:14.340Z,27.50
2018-06-09T17:14:43.000Z,27.00
2018-06-09T17:17:11.820Z,27.40
2018-06-09T17:19:40.488Z,27.40
2018-06-09T17:22:09.230Z,27.30
2018-06-09T17:24:38.060Z,27.20
2018-06-09T17:27:06.759Z,27.20
2018-06-09T17:29:36.034Z,27.10
2018-06-09T17:32:04.791Z,27.10
2018-06-09T17:37:01.992Z,27.10
2018-06-09T17:39:30.692Z,27.10
2018-06-09T17:41:59.518Z,27.00
2018-06-09T17:44:28.384Z,27.00
2018-06-09T17:49:27.508Z,26.60
2018-06-09T17:51:56.273Z,26.60
2018-06-09T17:54:25.152Z,26.50
2018-06-09T17:57:01.217Z,26.40
2018-06-09T18:07:05.592Z,26.10
2018-06-09T18:09:34.302Z,26.10
2018-06-09T18:12:03.059Z,26.00
2018-06-09T18:14:31.805Z,26.00
2018-06-09T18:17:00.514Z,26.00
2018-06-09T18:21:57.640Z,26.00
2018-06-09T18:24:26.384Z,26.00
2018-06-09T18:26:55.761Z,25.90
2018-06-09T18:29:25.031Z,25.70
2018-06-09T18:31:53.864Z,25.70
2018-06-09T18:34:22.710Z,25.60
2018-06-09T18:36:51.642Z,25.50
2018-06-09T18:39:20.541Z,25.40
2018-06-09T18:41:49.384Z,25.30
2018-06-09T18:44:18.046Z,25.30
2018-06-09T18:46:46.777Z,25.30
2018-06-09T18:49:15.484Z,27.10
2018-06-09T18:51:44.172Z,25.30
2018-06-09T18:54:12.922Z,25.30
2018-06-09T18:56:41.624Z,25.30
2018-06-09T18:59:10.328Z,25.30
2018-06-09T19:01:39.099Z,25.30
2018-06-09T19:04:07.901Z,25.30
2018-06-09T19:06:37.011Z,25.40
2018-06-09T19:09:08.177Z,25.40
2018-06-09T19:11:37.216Z,25.30
2018-06-09T19:14:06.162Z,25.20
2018-06-09T19:16:34.890Z,25.00
2018-06-09T19:19:03.728Z,24.90
2018-06-09T19:21:32.454Z,24.80
2018-06-09T19:29:11.592Z,24.80
2018-06-09T19:31:40.299Z,24.80
2018-06-09T19:39:08.152Z,24.80
2018-06-09T19:41:37.113Z,24.60
2018-06-09T19:44:05.928Z,24.60
2018-06-09T19:46:34.624Z,24.70
2018-06-09T19:49:03.330Z,24.80
2018-06-09T19:51:32.070Z,24.90
2018-06-09T19:54:03.303Z,25.00
2018-06-09T19:56:32.222Z,25.10
2018-06-09T19:59:00.943Z,25.10
2018-06-09T20:01:29.632Z,25.10
2018-06-09T20:03:58.446Z,25.10
2018-06-09T20:06:27.033Z,25.10
2018-06-09T20:08:56.008Z,25.10
2018-06-09T20:11:24.949Z,25.00
2018-06-09T20:13:55.011Z,24.90
2018-06-09T20:16:24.467Z,24.80
2018-06-09T20:18:53.214Z,24.70
2018-06-09T20:21:22.118Z,25.10
2018-06-09T20:23:50.909Z,24.50
2018-06-09T20:26:19.603Z,24.40
2018-06-09T20:28:48.602Z,23.00
2018-06-09T20:31:17.265Z,24.10
2018-06-09T20:33:46.030Z,24.10
2018-06-09T20:36:14.959Z,23.90
2018-06-09T20:38:43.881Z,23.90
2018-06-09T20:41:13.040Z,24.00
2018-06-09T20:43:41.741Z,24.00
2018-06-09T20:46:10.600Z,23.90
2018-06-09T20:48:39.462Z,23.90
2018-06-09T20:53:37.688Z,23.80
2018-06-09T20:56:06.452Z,23.90
2018-06-09T20:58:39.387Z,23.90
2018-06-09T21:01:10.750Z,23.80
2018-06-09T21:03:39.499Z,23.80
2018-06-09T21:06:08.234Z,23.80
2018-06-09T21:08:36.895Z,23.80
2018-06-09T21:11:05.770Z,23.80
2018-06-09T21:13:34.476Z,23.70
2018-06-09T21:16:03.152Z,23.70
2018-06-09T21:18:32.007Z,23.70
2018-06-09T21:21:00.740Z,23.80
2018-06-09T21:23:29.656Z,23.80
2018-06-09T21:25:58.289Z,23.80
2018-06-09T21:28:27.875Z,23.90
2018-06-09T21:34:14.593Z,23.80
2018-06-09T21:36:48.828Z,23.80
2018-06-09T21:39:27.098Z,23.90
2018-06-09T21:42:01.290Z,23.80
2018-06-09T21:44:35.112Z,23.80
2018-06-09T21:47:05.449Z,23.90
2018-06-09T21:49:39.671Z,23.80
2018-06-09T21:52:08.495Z,23.80
2018-06-09T21:54:37.194Z,23.80
2018-06-09T21:59:34.205Z,23.80
2018-06-09T22:02:02.944Z,23.80
2018-06-09T22:04:31.681Z,23.70
2018-06-09T22:07:00.290Z,23.70
2018-06-09T22:09:29.133Z,23.60
2018-06-09T22:11:57.979Z,23.40
2018-06-09T22:14:27.017Z,23.60
2018-06-09T22:16:55.772Z,23.60
2018-06-09T22:19:27.037Z,23.50
2018-06-09T22:24:24.258Z,23.50
2018-06-09T22:26:52.971Z,23.30
2018-06-09T22:31:50.197Z,23.30
2018-06-09T22:34:19.050Z,23.30
2018-06-09T22:39:16.665Z,23.20
2018-06-09T22:41:45.471Z,23.00
2018-06-09T22:44:14.136Z,22.90
2018-06-09T22:46:43.060Z,22.90
2018-06-09T22:49:11.649Z,22.70
2018-06-09T22:51:40.403Z,22.70
2018-06-09T22:54:09.106Z,22.70
2018-06-09T22:59:06.227Z,22.70
2018-06-09T23:04:03.346Z,22.70
2018-06-09T23:06:32.302Z,22.70
2018-06-09T23:09:01.083Z,22.60
2018-06-09T23:11:29.982Z,22.60
2018-06-09T23:13:58.622Z,22.40
2018-06-09T23:16:27.371Z,22.30
2018-06-09T23:21:24.450Z,22.20
2018-06-09T23:23:53.033Z,22.20
2018-06-09T23:26:21.816Z,22.30
2018-06-09T23:28:50.540Z,22.20
2018-06-09T23:31:19.330Z,22.00
2018-06-09T23:33:48.190Z,22.10
2018-06-09T23:36:16.845Z,22.10
2018-06-09T23:38:45.446Z,22.10
2018-06-09T23:41:14.211Z,22.20
2018-06-09T23:43:42.922Z,22.20
2018-06-09T23:46:11.621Z,22.20
2018-06-09T23:53:37.520Z,22.10
2018-06-09T23:56:06.425Z,22.90
2018-06-09T23:58:35.048Z,21.30
